createdAt,value
2019-04-07T00:02:30.351Z,99.90
2019-04-07T00:06:36.135Z,99.90
2019-04-07T00:10:41.672Z,99.90
2019-04-07T00:14:46.948Z,99.90
2019-04-07T00:18:52.391Z,99.90
2019-04-07T00:22:57.552Z,99.90
2019-04-07T00:27:03.632Z,99.90
2019-04-07T00:31:09.476Z,99.90
2019-04-07T00:35:23.848Z,99.90
2019-04-07T00:39:22.424Z,99.90
2019-04-07T00:43:28.543Z,99.90
2019-04-07T00:47:34.936Z,99.90
2019-04-07T00:51:41.005Z,99.90
2019-04-07T00:55:47.830Z,99.90
2019-04-07T00:59:54.019Z,99.90
2019-04-07T01:03:59.902Z,99.90
2019-04-07T01:08:05.500Z,99.90
2019-04-07T01:12:10.710Z,99.90
2019-04-07T01:16:16.135Z,99.90
2019-04-07T01:20:21.631Z,99.90
2019-04-07T01:24:26.746Z,99.90
2019-04-07T01:28:32.021Z,99.90
2019-04-07T01:32:37.808Z,99.90
2019-04-07T01:36:43.212Z,99.90
2019-04-07T01:40:58.281Z,99.90
2019-04-07T01:45:21.618Z,99.90
2019-04-07T01:49:57.887Z,99.90
2019-04-07T01:54:40.089Z,99.90
2019-04-07T01:59:19.803Z,99.90
2019-04-07T02:03:44.569Z,99.90
2019-04-07T02:08:08.036Z,99.90
2019-04-07T02:12:37.505Z,99.90
2019-04-07T02:17:14.686Z,99.90
2019-04-07T02:21:28.426Z,99.90
2019-04-07T02:26:05.002Z,99.90
2019-04-07T02:30:29.124Z,99.90
2019-04-07T02:34:49.007Z,99.90
2019-04-07T02:39:07.849Z,99.90
2019-04-07T02:43:38.545Z,99.90
2019-04-07T02:48:05.787Z,99.90
2019-04-07T02:52:34.466Z,99.90
2019-04-07T02:56:49.598Z,99.90
2019-04-07T03:01:26.340Z,99.90
2019-04-07T03:06:06.917Z,99.90
2019-04-07T03:10:24.978Z,99.90
2019-04-07T03:14:45.550Z,99.90
2019-04-07T03:19:00.225Z,99.90
2019-04-07T03:23:11.173Z,99.90
2019-04-07T03:27:32.407Z,99.90
2019-04-07T03:31:59.733Z,99.90
2019-04-07T03:36:12.754Z,99.90
2019-04-07T03:40:30.213Z,99.90
2019-04-07T03:44:54.397Z,99.90
2019-04-07T03:49:13.784Z,99.90
2019-04-07T03:53:44.018Z,99.90
2019-04-07T03:58:12.290Z,99.90
2019-04-07T04:02:35.389Z,99.90
2019-04-07T04:07:22.892Z,99.90
2019-04-07T04:11:40.607Z,99.90
2019-04-07T04:16:03.275Z,99.90
2019-04-07T04:20:10.398Z,99.90
2019-04-07T04:24:16.770Z,99.90
2019-04-07T04:28:22.166Z,99.90
2019-04-07T04:32:28.736Z,99.90
2019-04-07T04:36:34.128Z,99.90
2019-04-07T04:40:39.860Z,99.90
2019-04-07T04:44:46.039Z,99.90
2019-04-07T04:48:51.684Z,99.90
2019-04-07T04:52:57.846Z,99.90
2019-04-07T04:57:06.419Z,99.90
2019-04-07T05:01:10.606Z,99.90
2019-04-07T05:05:16.974Z,99.90
2019-04-07T05:09:23.207Z,99.90
2019-04-07T05:13:28.670Z,99.90
2019-04-07T05:17:35.558Z,99.90
2019-04-07T05:21:40.805Z,99.90
2019-04-07T05:25:46.174Z,99.90
2019-04-07T05:29:52.040Z,99.90
2019-04-07T05:33:57.502Z,99.90
2019-04-07T05:38:05.590Z,99.90
2019-04-07T05:42:09.948Z,99.90
2019-04-07T05:46:15.981Z,99.90
2019-04-07T05:50:22.249Z,99.90
2019-04-07T05:54:28.505Z,99.90
2019-04-07T05:58:37.574Z,99.90
2019-04-07T06:02:41.687Z,99.90
2019-04-07T06:06:52.663Z,99.90
2019-04-07T06:11:00.361Z,99.90
2019-04-07T06:15:03.137Z,99.90
2019-04-07T06:19:09.015Z,99.90
2019-04-07T06:23:14.246Z,99.90
2019-04-07T06:27:19.452Z,99.90
2019-04-07T06:31:26.307Z,99.90
2019-04-07T06:35:31.639Z,99.90
2019-04-07T06:39:37.337Z,99.90
2019-04-07T06:43:42.835Z,99.90
2019-04-07T06:47:51.854Z,99.90
2019-04-07T06:52:22.659Z,99.90
2019-04-07T06:56:45.752Z,99.90
2019-04-07T07:01:16.590Z,99.90
2019-04-07T07:05:43.020Z,99.90
2019-04-07T07:10:06.173Z,99.90
2019-04-07T07:14:36.493Z,99.90
2019-04-07T07:19:06.266Z,99.90
2019-04-07T07:23:15.882Z,96.00
2019-04-07T07:27:22.858Z,93.50
2019-04-07T07:31:28.309Z,93.20
2019-04-07T07:35:33.549Z,92.00
2019-04-07T07:39:41.836Z,90.00
2019-04-07T07:43:46.051Z,86.40
2019-04-07T07:47:53.217Z,81.30
2019-04-07T07:51:58.201Z,78.00
2019-04-07T07:56:08.315Z,76.30
2019-04-07T08:00:11.348Z,73.80
2019-04-07T08:04:17.330Z,73.00
2019-04-07T08:08:23.411Z,72.60
2019-04-07T08:12:32.430Z,71.50
2019-04-07T08:16:35.706Z,70.20
2019-04-07T08:20:44.070Z,68.10
2019-04-07T08:24:51.144Z,68.80
2019-04-07T08:28:54.789Z,65.80
2019-04-07T08:33:01.235Z,62.40
2019-04-07T08:37:06.919Z,61.60
2019-04-07T08:41:13.380Z,59.20
2019-04-07T08:45:19.658Z,54.60
2019-04-07T08:49:25.607Z,50.80
2019-04-07T08:53:30.796Z,48.20
2019-04-07T08:57:36.885Z,47.50
2019-04-07T09:01:42.357Z,45.00
2019-04-07T09:05:47.850Z,42.60
2019-04-07T09:09:53.201Z,40.20
2019-04-07T09:13:58.851Z,41.90
2019-04-07T09:18:12.731Z,43.60
2019-04-07T09:22:51.482Z,47.20
2019-04-07T09:27:17.127Z,48.20
2019-04-07T09:31:44.865Z,47.60
2019-04-07T09:36:09.070Z,43.90
2019-04-07T09:40:39.374Z,43.30
2019-04-07T09:45:22.772Z,40.30
2019-04-07T09:49:52.555Z,41.90
2019-04-07T09:54:11.187Z,43.00
2019-04-07T09:58:35.759Z,42.90
2019-04-07T10:03:08.574Z,41.50
2019-04-07T10:07:23.994Z,40.10
2019-04-07T10:11:38.910Z,40.90
2019-04-07T10:15:54.957Z,38.30
2019-04-07T10:20:11.306Z,39.20
2019-04-07T10:24:41.618Z,39.70
2019-04-07T10:29:06.053Z,36.50
2019-04-07T10:33:39.458Z,40.50
2019-04-07T10:37:59.510Z,39.50
2019-04-07T10:42:18.021Z,35.40
2019-04-07T10:46:45.008Z,41.00
2019-04-07T10:51:10.419Z,41.60
2019-04-07T10:55:23.013Z,42.60
2019-04-07T10:59:39.082Z,41.80
2019-04-07T11:04:15.592Z,39.60
2019-04-07T11:08:40.074Z,42.30
2019-04-07T11:13:03.122Z,39.20
2019-04-07T11:17:39.486Z,36.10
2019-04-07T11:22:00.831Z,35.40
2019-04-07T11:26:31.194Z,35.00
2019-04-07T11:30:47.338Z,30.20
2019-04-07T11:35:11.517Z,30.00
2019-04-07T11:39:42.444Z,30.70
2019-04-07T11:44:06.385Z,28.90
2019-04-07T11:48:29.914Z,26.60
2019-04-07T11:53:00.572Z,26.80
2019-04-07T11:57:25.822Z,26.10
2019-04-07T12:02:09.018Z,24.50
2019-04-07T12:06:40.798Z,26.20
2019-04-07T12:11:17.929Z,26.50
2019-04-07T12:15:42.972Z,27.00
2019-04-07T12:20:10.874Z,26.90
2019-04-07T12:24:35.544Z,27.50
2019-04-07T12:28:57.964Z,26.00
2019-04-07T12:33:23.193Z,23.50
2019-04-07T12:37:54.224Z,19.80
2019-04-07T12:42:08.475Z,20.10
2019-04-07T12:46:36.493Z,20.30
2019-04-07T12:51:07.374Z,21.90
2019-04-07T12:55:56.898Z,21.90
2019-04-07T13:00:28.930Z,19.30
2019-04-07T13:04:46.335Z,20.80
2019-04-07T13:09:03.974Z,24.20
2019-04-07T13:13:31.639Z,27.10
2019-04-07T13:17:50.632Z,30.00
2019-04-07T13:22:33.393Z,29.80
2019-04-07T13:26:50.062Z,29.50
2019-04-07T13:31:18.049Z,31.30
2019-04-07T13:35:42.198Z,34.00
2019-04-07T13:40:02.408Z,37.20
2019-04-07T13:44:24.214Z,38.20
2019-04-07T13:48:51.608Z,38.20
2019-04-07T13:53:13.605Z,37.90
2019-04-07T13:57:39.284Z,37.60
2019-04-07T14:01:54.049Z,39.90
2019-04-07T14:06:29.499Z,40.40
2019-04-07T14:10:45.923Z,41.00
2019-04-07T14:15:22.569Z,43.40
2019-04-07T14:19:44.832Z,43.80
2019-04-07T14:24:08.162Z,43.50
2019-04-07T14:28:26.651Z,43.10
2019-04-07T14:32:52.037Z,42.80
2019-04-07T14:37:26.465Z,45.60
2019-04-07T14:42:04.940Z,44.60
2019-04-07T14:46:23.840Z,44.70
2019-04-07T14:50:51.064Z,44.00
2019-04-07T14:55:14.005Z,46.20
2019-04-07T14:59:29.649Z,46.80
2019-04-07T15:03:35.285Z,47.80
2019-04-07T15:08:06.307Z,48.60
2019-04-07T15:12:23.900Z,48.40
2019-04-07T15:16:27.452Z,49.70
2019-04-07T15:20:32.972Z,48.20
2019-04-07T15:24:39.357Z,48.40
2019-04-07T15:28:45.638Z,50.00
2019-04-07T15:32:51.577Z,49.90
2019-04-07T15:36:57.766Z,51.20
2019-04-07T15:41:07.739Z,52.10
2019-04-07T15:45:13.371Z,53.40
2019-04-07T15:49:20.408Z,53.00
2019-04-07T15:53:27.934Z,54.60
2019-04-07T15:57:33.283Z,57.80
2019-04-07T16:01:39.344Z,55.60
2019-04-07T16:05:46.476Z,57.20
2019-04-07T16:09:56.310Z,56.80
2019-04-07T16:13:59.591Z,57.00
2019-04-07T16:18:07.295Z,57.30
2019-04-07T16:22:14.160Z,59.50
2019-04-07T16:26:20.659Z,58.30
2019-04-07T16:30:26.322Z,57.90
2019-04-07T16:34:31.950Z,60.10
2019-04-07T16:38:37.202Z,67.10
2019-04-07T16:42:53.852Z,72.60
2019-04-07T16:46:54.613Z,75.40
2019-04-07T16:50:57.842Z,78.60
2019-04-07T16:55:04.274Z,84.50
2019-04-07T16:59:10.615Z,91.20
2019-04-07T17:03:17.125Z,90.90
2019-04-07T17:07:23.320Z,91.50
2019-04-07T17:11:30.105Z,92.40
2019-04-07T17:15:39.561Z,92.70
2019-04-07T17:19:43.605Z,93.00
2019-04-07T17:23:53.211Z,94.10
2019-04-07T17:28:00.450Z,93.60
2019-04-07T17:32:04.895Z,93.00
2019-04-07T17:36:15.008Z,93.80
2019-04-07T17:40:19.712Z,92.20
2019-04-07T17:44:35.055Z,94.80
2019-04-07T17:48:58.894Z,95.90
2019-04-07T17:53:25.283Z,95.80
2019-04-07T17:57:42.848Z,95.70
2019-04-07T18:02:28.893Z,95.70
2019-04-07T18:07:06.064Z,96.70
2019-04-07T18:11:30.107Z,96.50
2019-04-07T18:15:57.937Z,96.10
2019-04-07T18:20:28.281Z,96.10
2019-04-07T18:25:02.780Z,96.40
2019-04-07T18:29:30.909Z,99.10
2019-04-07T18:34:06.739Z,99.00
2019-04-07T18:38:35.298Z,97.20
2019-04-07T18:43:06.277Z,98.20
2019-04-07T18:47:54.867Z,98.30
2019-04-07T18:52:29.553Z,97.50
2019-04-07T18:56:54.833Z,97.90
2019-04-07T19:01:34.245Z,99.10
2019-04-07T19:05:58.531Z,99.30
2019-04-07T19:10:25.571Z,99.80
2019-04-07T19:14:44.449Z,99.70
2019-04-07T19:19:02.799Z,99.70
2019-04-07T19:23:28.556Z,99.90
2019-04-07T19:28:00.991Z,99.90
2019-04-07T19:32:25.140Z,99.90
2019-04-07T19:36:49.950Z,99.90
2019-04-07T19:41:13.349Z,99.90
2019-04-07T19:45:37.044Z,99.90
2019-04-07T19:50:11.584Z,99.90
2019-04-07T19:54:55.087Z,99.90
2019-04-07T19:59:26.658Z,99.90
2019-04-07T20:04:10.229Z,99.90
2019-04-07T20:08:32.297Z,99.90
2019-04-07T20:12:56.055Z,99.90
2019-04-07T20:17:23.584Z,99.90
2019-04-07T20:21:54.712Z,99.90
2019-04-07T20:26:06.532Z,99.90
2019-04-07T20:30:33.467Z,94.00
2019-04-07T20:34:57.005Z,95.40
2019-04-07T20:39:12.706Z,95.70
2019-04-07T20:43:40.553Z,96.00
2019-04-07T20:48:03.795Z,95.70
2019-04-07T20:52:24.027Z,97.20
2019-04-07T20:56:45.615Z,96.30
2019-04-07T21:01:10.982Z,96.40
2019-04-07T21:05:36.485Z,97.00
2019-04-07T21:09:59.934Z,97.20
2019-04-07T21:14:43.172Z,97.90
2019-04-07T21:19:07.699Z,99.60
2019-04-07T21:23:19.452Z,99.90
2019-04-07T21:27:42.871Z,99.90
2019-04-07T21:32:03.517Z,99.90
2019-04-07T21:36:32.205Z,99.90
2019-04-07T21:40:55.553Z,99.90
2019-04-07T21:49:43.892Z,99.90
2019-04-07T21:53:59.985Z,99.90
2019-04-07T21:58:31.548Z,99.90
2019-04-07T22:02:50.862Z,99.90
2019-04-07T22:07:18.232Z,99.90
2019-04-07T22:11:26.678Z,99.90
2019-04-07T22:15:42.190Z,99.90
2019-04-07T22:19:38.125Z,99.90
2019-04-07T22:23:44.285Z,99.90
2019-04-07T22:27:50.441Z,99.90
2019-04-07T22:31:58.358Z,99.90
2019-04-07T22:36:03.889Z,99.90
2019-04-07T22:40:15.919Z,99.90
2019-04-07T22:44:22.219Z,99.90
2019-04-07T22:48:29.412Z,99.90
2019-04-07T22:52:35.998Z,99.90
2019-04-07T22:56:41.419Z,99.90
2019-04-07T23:00:46.796Z,99.90
2019-04-07T23:04:52.471Z,99.90
2019-04-07T23:08:57.747Z,99.90
2019-04-07T23:13:03.622Z,99.90
2019-04-07T23:17:09.898Z,99.90
2019-04-07T23:21:15.516Z,99.90
2019-04-07T23:25:22.649Z,99.90
2019-04-07T23:29:28.312Z,99.90
2019-04-07T23:33:34.659Z,99.90
2019-04-07T23:37:41.094Z,99.90
2019-04-07T23:41:46.464Z,99.90
2019-04-07T23:45:51.793Z,99.90
2019-04-07T23:49:57.032Z,99.90
2019-04-07T23:54:15.133Z,99.90
2019-04-07T23:58:20.930Z,99.90
